sensor_id;sensor_type;location;lat;lon;timestamp;temperature;humidity
11087;DHT22;5597;47.588;9.642;2022-07-29T00:01:35;18.40;99.90
11087;DHT22;5597;47.588;9.642;2022-07-29T00:04:00;18.50;99.90
11087;DHT22;5597;47.588;9.642;2022-07-29T00:06:26;18.40;99.90
11087;DHT22;5597;47.588;9.642;2022-07-29T00:08:51;18.40;99.90
11087;DHT22;5597;47.588;9.642;2022-07-29T00:11:17;18.40;99.90
11087;DHT22;5597;47.588;9.642;2022-07-29T00:13:43;18.40;99.90
11087;DHT22;5597;47.588;9.642;2022-07-29T00:16:08;18.40;99.90
11087;DHT22;5597;47.588;9.642;2022-07-29T00:18:34;18.40;99.90
11087;DHT22;5597;47.588;9.642;2022-07-29T00:20:59;18.40;99.90
11087;DHT22;5597;47.588;9.642;2022-07-29T00:23:25;18.40;99.90
11087;DHT22;5597;47.588;9.642;2022-07-29T00:25:50;18.40;99.90
11087;DHT22;5597;47.588;9.642;2022-07-29T00:28:16;18.40;99.90
11087;DHT22;5597;47.588;9.642;2022-07-29T00:30:41;18.40;99.90
11087;DHT22;5597;47.588;9.642;2022-07-29T00:33:09;18.40;99.90
11087;DHT22;5597;47.588;9.642;2022-07-29T00:35:35;18.40;99.90
11087;DHT22;5597;47.588;9.642;2022-07-29T00:38:11;18.40;99.90
11087;DHT22;5597;47.588;9.642;2022-07-29T00:40:37;18.40;99.90
11087;DHT22;5597;47.588;9.642;2022-07-29T00:43:03;18.30;99.90
11087;DHT22;5597;47.588;9.642;2022-07-29T00:45:28;18.30;99.90
11087;DHT22;5597;47.588;9.642;2022-07-29T00:47:55;18.30;99.90
11087;DHT22;5597;47.588;9.642;2022-07-29T00:50:21;18.30;99.90
11087;DHT22;5597;47.588;9.642;2022-07-29T00:52:48;18.30;99.90
11087;DHT22;5597;47.588;9.642;2022-07-29T00:55:15;18.20;99.90
11087;DHT22;5597;47.588;9.642;2022-07-29T00:57:42;18.20;99.90
11087;DHT22;5597;47.588;9.642;2022-07-29T01:00:11;18.20;99.90
11087;DHT22;5597;47.588;9.642;2022-07-29T01:02:37;18.20;99.90
11087;DHT22;5597;47.588;9.642;2022-07-29T01:05:04;18.20;99.90
11087;DHT22;5597;47.588;9.642;2022-07-29T01:07:30;18.20;99.90
11087;DHT22;5597;47.588;9.642;2022-07-29T01:09:58;18.20;99.90
11087;DHT22;5597;47.588;9.642;2022-07-29T01:12:28;18.20;99.90
11087;DHT22;5597;47.588;9.642;2022-07-29T01:14:58;18.20;99.90
11087;DHT22;5597;47.588;9.642;2022-07-29T01:17:32;18.20;99.90
11087;DHT22;5597;47.588;9.642;2022-07-29T01:31:23;18.20;99.90
11087;DHT22;5597;47.588;9.642;2022-07-29T01:33:57;18.10;99.90
11087;DHT22;5597;47.588;9.642;2022-07-29T01:39:30;18.10;99.90
11087;DHT22;5597;47.588;9.642;2022-07-29T01:45:02;18.10;99.90
11087;DHT22;5597;47.588;9.642;2022-07-29T01:47:35;18.00;99.90
11087;DHT22;5597;47.588;9.642;2022-07-29T01:50:07;18.00;99.90
11087;DHT22;5597;47.588;9.642;2022-07-29T01:52:38;18.00;99.90
11087;DHT22;5597;47.588;9.642;2022-07-29T01:55:09;18.00;99.90
11087;DHT22;5597;47.588;9.642;2022-07-29T01:57:39;18.00;99.90
11087;DHT22;5597;47.588;9.642;2022-07-29T02:00:06;17.90;99.90
11087;DHT22;5597;47.588;9.642;2022-07-29T02:02:32;17.90;99.90
11087;DHT22;5597;47.588;9.642;2022-07-29T02:05:00;17.90;99.90
11087;DHT22;5597;47.588;9.642;2022-07-29T02:07:29;17.90;99.90
11087;DHT22;5597;47.588;9.642;2022-07-29T02:09:56;17.90;99.90
11087;DHT22;5597;47.588;9.642;2022-07-29T02:12:24;17.80;99.90
11087;DHT22;5597;47.588;9.642;2022-07-29T02:14:53;17.80;99.90
11087;DHT22;5597;47.588;9.642;2022-07-29T02:17:26;17.80;99.90
11087;DHT22;5597;47.588;9.642;2022-07-29T02:19:56;17.80;99.90
11087;DHT22;5597;47.588;9.642;2022-07-29T02:22:24;17.80;99.90
11087;DHT22;5597;47.588;9.642;2022-07-29T02:24:51;17.80;99.90
11087;DHT22;5597;47.588;9.642;2022-07-29T02:27:19;17.80;99.90
11087;DHT22;5597;47.588;9.642;2022-07-29T02:29:46;17.80;99.90
11087;DHT22;5597;47.588;9.642;2022-07-29T02:32:14;17.80;99.90
11087;DHT22;5597;47.588;9.642;2022-07-29T02:34:42;17.70;99.90
11087;DHT22;5597;47.588;9.642;2022-07-29T02:37:12;17.70;99.90
11087;DHT22;5597;47.588;9.642;2022-07-29T02:39:41;17.70;99.90
11087;DHT22;5597;47.588;9.642;2022-07-29T02:42:11;17.70;99.90
11087;DHT22;5597;47.588;9.642;2022-07-29T02:44:38;17.70;99.90
11087;DHT22;5597;47.588;9.642;2022-07-29T02:49:48;17.60;99.90
11087;DHT22;5597;47.588;9.642;2022-07-29T02:57:42;17.60;99.90
11087;DHT22;5597;47.588;9.642;2022-07-29T03:00:10;17.60;99.90
11087;DHT22;5597;47.588;9.642;2022-07-29T03:02:40;17.60;99.90
11087;DHT22;5597;47.588;9.642;2022-07-29T03:05:08;17.50;99.90
11087;DHT22;5597;47.588;9.642;2022-07-29T03:07:36;17.50;99.90
11087;DHT22;5597;47.588;9.642;2022-07-29T03:10:03;17.50;99.90
11087;DHT22;5597;47.588;9.642;2022-07-29T03:12:30;17.50;99.90
11087;DHT22;5597;47.588;9.642;2022-07-29T03:14:56;17.50;99.90
11087;DHT22;5597;47.588;9.642;2022-07-29T03:17:23;17.50;99.90
11087;DHT22;5597;47.588;9.642;2022-07-29T03:19:49;17.50;99.90
11087;DHT22;5597;47.588;9.642;2022-07-29T03:22:15;17.50;99.90
11087;DHT22;5597;47.588;9.642;2022-07-29T03:24:40;17.40;99.90
11087;DHT22;5597;47.588;9.642;2022-07-29T03:27:06;17.40;99.90
11087;DHT22;5597;47.588;9.642;2022-07-29T03:29:32;17.40;99.90
11087;DHT22;5597;47.588;9.642;2022-07-29T03:31:58;17.40;99.90
11087;DHT22;5597;47.588;9.642;2022-07-29T03:34:23;17.40;99.90
11087;DHT22;5597;47.588;9.642;2022-07-29T03:36:49;17.40;99.90
11087;DHT22;5597;47.588;9.642;2022-07-29T03:39:18;17.40;99.90
11087;DHT22;5597;47.588;9.642;2022-07-29T03:41:48;17.40;99.90
11087;DHT22;5597;47.588;9.642;2022-07-29T03:44:15;17.40;99.90
11087;DHT22;5597;47.588;9.642;2022-07-29T03:46:43;17.40;99.90
11087;DHT22;5597;47.588;9.642;2022-07-29T03:49:11;17.40;99.90
11087;DHT22;5597;47.588;9.642;2022-07-29T03:51:38;17.40;99.90
11087;DHT22;5597;47.588;9.642;2022-07-29T03:54:04;17.40;99.90
11087;DHT22;5597;47.588;9.642;2022-07-29T03:56:32;17.40;99.90
11087;DHT22;5597;47.588;9.642;2022-07-29T03:59:01;17.40;99.90
11087;DHT22;5597;47.588;9.642;2022-07-29T04:01:28;17.40;99.90
11087;DHT22;5597;47.588;9.642;2022-07-29T04:03:54;17.40;99.90
11087;DHT22;5597;47.588;9.642;2022-07-29T04:06:20;17.40;99.90
11087;DHT22;5597;47.588;9.642;2022-07-29T04:08:45;17.50;99.90
11087;DHT22;5597;47.588;9.642;2022-07-29T04:11:11;17.50;99.90
11087;DHT22;5597;47.588;9.642;2022-07-29T04:13:37;17.50;99.90
11087;DHT22;5597;47.588;9.642;2022-07-29T04:16:03;17.60;99.90
11087;DHT22;5597;47.588;9.642;2022-07-29T04:18:28;17.60;99.90
11087;DHT22;5597;47.588;9.642;2022-07-29T04:20:54;17.70;99.90
11087;DHT22;5597;47.588;9.642;2022-07-29T04:23:20;17.70;99.90
11087;DHT22;5597;47.588;9.642;2022-07-29T04:25:45;17.80;99.90
11087;DHT22;5597;47.588;9.642;2022-07-29T04:28:11;17.80;99.90
11087;DHT22;5597;47.588;9.642;2022-07-29T04:30:37;17.80;99.90
11087;DHT22;5597;47.588;9.642;2022-07-29T04:33:05;17.90;99.90
11087;DHT22;5597;47.588;9.642;2022-07-29T04:35:34;17.90;99.90
11087;DHT22;5597;47.588;9.642;2022-07-29T04:38:00;18.00;99.90
11087;DHT22;5597;47.588;9.642;2022-07-29T04:40:25;18.00;99.90
11087;DHT22;5597;47.588;9.642;2022-07-29T04:42:51;18.00;99.90
11087;DHT22;5597;47.588;9.642;2022-07-29T04:45:16;18.10;99.90
11087;DHT22;5597;47.588;9.642;2022-07-29T04:47:42;18.10;99.90
11087;DHT22;5597;47.588;9.642;2022-07-29T04:50:09;18.10;99.90
11087;DHT22;5597;47.588;9.642;2022-07-29T04:52:34;18.10;99.90
11087;DHT22;5597;47.588;9.642;2022-07-29T04:55:01;18.20;99.90
11087;DHT22;5597;47.588;9.642;2022-07-29T04:57:26;18.20;99.90
11087;DHT22;5597;47.588;9.642;2022-07-29T04:59:52;18.20;99.90
11087;DHT22;5597;47.588;9.642;2022-07-29T05:02:17;18.20;99.90
11087;DHT22;5597;47.588;9.642;2022-07-29T05:04:43;18.20;99.90
11087;DHT22;5597;47.588;9.642;2022-07-29T05:07:08;18.30;99.90
11087;DHT22;5597;47.588;9.642;2022-07-29T05:09:34;18.30;99.90
11087;DHT22;5597;47.588;9.642;2022-07-29T05:12:00;18.30;99.90
11087;DHT22;5597;47.588;9.642;2022-07-29T05:14:25;18.30;99.90
11087;DHT22;5597;47.588;9.642;2022-07-29T05:16:51;18.40;99.90
11087;DHT22;5597;47.588;9.642;2022-07-29T05:19:17;18.40;99.90
11087;DHT22;5597;47.588;9.642;2022-07-29T05:21:44;18.40;99.90
11087;DHT22;5597;47.588;9.642;2022-07-29T05:24:10;18.40;99.90
11087;DHT22;5597;47.588;9.642;2022-07-29T05:26:35;18.40;99.90
11087;DHT22;5597;47.588;9.642;2022-07-29T05:29:01;18.40;99.90
11087;DHT22;5597;47.588;9.642;2022-07-29T05:31:27;18.40;99.90
11087;DHT22;5597;47.588;9.642;2022-07-29T05:33:52;18.40;99.90
11087;DHT22;5597;47.588;9.642;2022-07-29T05:36:18;18.40;99.90
11087;DHT22;5597;47.588;9.642;2022-07-29T05:38:44;18.40;99.90
11087;DHT22;5597;47.588;9.642;2022-07-29T05:41:09;18.40;99.90
11087;DHT22;5597;47.588;9.642;2022-07-29T05:43:35;18.40;99.90
11087;DHT22;5597;47.588;9.642;2022-07-29T05:46:00;18.50;99.90
11087;DHT22;5597;47.588;9.642;2022-07-29T05:48:26;18.50;99.90
11087;DHT22;5597;47.588;9.642;2022-07-29T05:50:52;18.50;99.90
11087;DHT22;5597;47.588;9.642;2022-07-29T05:53:17;18.60;99.90
11087;DHT22;5597;47.588;9.642;2022-07-29T05:55:43;18.60;99.90
11087;DHT22;5597;47.588;9.642;2022-07-29T05:58:08;18.60;99.90
11087;DHT22;5597;47.588;9.642;2022-07-29T06:00:34;18.70;99.90
11087;DHT22;5597;47.588;9.642;2022-07-29T06:03:00;18.70;99.90
11087;DHT22;5597;47.588;9.642;2022-07-29T06:05:25;18.70;99.90
11087;DHT22;5597;47.588;9.642;2022-07-29T06:07:51;18.70;99.90
11087;DHT22;5597;47.588;9.642;2022-07-29T06:10:17;18.70;99.90
11087;DHT22;5597;47.588;9.642;2022-07-29T06:12:42;18.70;99.90
11087;DHT22;5597;47.588;9.642;2022-07-29T06:15:08;18.70;99.90
11087;DHT22;5597;47.588;9.642;2022-07-29T06:17:34;18.70;99.90
11087;DHT22;5597;47.588;9.642;2022-07-29T06:19:59;18.60;99.90
11087;DHT22;5597;47.588;9.642;2022-07-29T06:22:25;18.60;99.90
11087;DHT22;5597;47.588;9.642;2022-07-29T06:24:51;18.60;99.90
11087;DHT22;5597;47.588;9.642;2022-07-29T06:27:16;18.60;99.90
11087;DHT22;5597;47.588;9.642;2022-07-29T06:29:42;18.60;99.90
11087;DHT22;5597;47.588;9.642;2022-07-29T06:32:08;18.50;99.90
11087;DHT22;5597;47.588;9.642;2022-07-29T06:34:35;18.50;99.90
11087;DHT22;5597;47.588;9.642;2022-07-29T06:37:05;18.60;99.90
11087;DHT22;5597;47.588;9.642;2022-07-29T06:39:31;18.60;99.90
11087;DHT22;5597;47.588;9.642;2022-07-29T06:41:56;18.60;99.90
11087;DHT22;5597;47.588;9.642;2022-07-29T06:44:22;18.60;99.90
11087;DHT22;5597;47.588;9.642;2022-07-29T06:46:47;18.70;99.90
11087;DHT22;5597;47.588;9.642;2022-07-29T06:49:15;18.70;99.90
11087;DHT22;5597;47.588;9.642;2022-07-29T06:51:41;18.90;99.90
11087;DHT22;5597;47.588;9.642;2022-07-29T06:54:07;18.90;99.90
11087;DHT22;5597;47.588;9.642;2022-07-29T06:56:34;19.00;99.90
11087;DHT22;5597;47.588;9.642;2022-07-29T06:59:02;19.20;99.90
11087;DHT22;5597;47.588;9.642;2022-07-29T07:01:28;19.30;99.90
11087;DHT22;5597;47.588;9.642;2022-07-29T07:03:54;19.50;99.90
11087;DHT22;5597;47.588;9.642;2022-07-29T07:06:19;19.60;99.90
11087;DHT22;5597;47.588;9.642;2022-07-29T07:08:45;19.80;99.90
11087;DHT22;5597;47.588;9.642;2022-07-29T07:11:11;19.90;99.90
11087;DHT22;5597;47.588;9.642;2022-07-29T07:13:37;20.00;99.90
11087;DHT22;5597;47.588;9.642;2022-07-29T07:16:03;20.10;99.90
11087;DHT22;5597;47.588;9.642;2022-07-29T07:18:29;20.30;99.90
11087;DHT22;5597;47.588;9.642;2022-07-29T07:20:55;20.40;99.90
11087;DHT22;5597;47.588;9.642;2022-07-29T07:23:21;20.60;99.90
11087;DHT22;5597;47.588;9.642;2022-07-29T07:25:46;20.80;99.90
11087;DHT22;5597;47.588;9.642;2022-07-29T07:28:12;21.10;99.90
11087;DHT22;5597;47.588;9.642;2022-07-29T07:30:38;21.30;99.90
11087;DHT22;5597;47.588;9.642;2022-07-29T07:33:04;21.50;99.90
11087;DHT22;5597;47.588;9.642;2022-07-29T07:35:30;21.70;99.90
11087;DHT22;5597;47.588;9.642;2022-07-29T07:37:56;21.80;99.90
11087;DHT22;5597;47.588;9.642;2022-07-29T07:40:22;22.00;99.90
11087;DHT22;5597;47.588;9.642;2022-07-29T07:42:47;22.10;99.90
11087;DHT22;5597;47.588;9.642;2022-07-29T07:45:13;22.20;99.90
11087;DHT22;5597;47.588;9.642;2022-07-29T07:47:39;22.40;99.90
11087;DHT22;5597;47.588;9.642;2022-07-29T07:50:09;22.50;99.90
11087;DHT22;5597;47.588;9.642;2022-07-29T07:52:49;22.60;99.90
11087;DHT22;5597;47.588;9.642;2022-07-29T07:55:15;22.60;99.90
11087;DHT22;5597;47.588;9.642;2022-07-29T07:57:40;22.60;99.90
11087;DHT22;5597;47.588;9.642;2022-07-29T08:00:07;22.50;99.90
11087;DHT22;5597;47.588;9.642;2022-07-29T08:02:32;22.50;99.90
11087;DHT22;5597;47.588;9.642;2022-07-29T08:04:58;22.50;99.90
11087;DHT22;5597;47.588;9.642;2022-07-29T08:07:24;22.50;99.90
11087;DHT22;5597;47.588;9.642;2022-07-29T08:09:50;22.50;99.90
11087;DHT22;5597;47.588;9.642;2022-07-29T08:12:16;22.60;99.90
11087;DHT22;5597;47.588;9.642;2022-07-29T08:14:41;22.70;99.90
11087;DHT22;5597;47.588;9.642;2022-07-29T08:17:07;22.90;99.90
11087;DHT22;5597;47.588;9.642;2022-07-29T08:19:32;22.90;99.90
11087;DHT22;5597;47.588;9.642;2022-07-29T08:21:58;23.00;99.90
11087;DHT22;5597;47.588;9.642;2022-07-29T08:24:24;23.00;99.90
11087;DHT22;5597;47.588;9.642;2022-07-29T08:27:08;23.00;99.90
11087;DHT22;5597;47.588;9.642;2022-07-29T08:29:34;23.10;99.90
11087;DHT22;5597;47.588;9.642;2022-07-29T08:32:00;23.20;99.90
11087;DHT22;5597;47.588;9.642;2022-07-29T08:34:25;23.30;99.90
11087;DHT22;5597;47.588;9.642;2022-07-29T08:36:51;23.30;99.90
11087;DHT22;5597;47.588;9.642;2022-07-29T08:39:17;23.40;99.90
11087;DHT22;5597;47.588;9.642;2022-07-29T08:41:42;23.50;99.90
11087;DHT22;5597;47.588;9.642;2022-07-29T08:44:09;23.70;99.90
11087;DHT22;5597;47.588;9.642;2022-07-29T08:46:37;23.80;99.90
11087;DHT22;5597;47.588;9.642;2022-07-29T08:49:04;23.90;99.90
11087;DHT22;5597;47.588;9.642;2022-07-29T08:51:30;24.00;99.90
11087;DHT22;5597;47.588;9.642;2022-07-29T08:53:58;24.00;99.90
11087;DHT22;5597;47.588;9.642;2022-07-29T08:56:24;24.20;99.90
11087;DHT22;5597;47.588;9.642;2022-07-29T08:58:50;24.20;99.90
11087;DHT22;5597;47.588;9.642;2022-07-29T09:01:27;24.30;99.90
11087;DHT22;5597;47.588;9.642;2022-07-29T09:03:56;24.40;99.90
11087;DHT22;5597;47.588;9.642;2022-07-29T09:06:24;24.40;99.90
11087;DHT22;5597;47.588;9.642;2022-07-29T09:08:54;24.40;99.90
11087;DHT22;5597;47.588;9.642;2022-07-29T09:11:20;24.30;99.90
11087;DHT22;5597;47.588;9.642;2022-07-29T09:13:45;24.20;99.90
11087;DHT22;5597;47.588;9.642;2022-07-29T09:16:11;24.10;99.90
11087;DHT22;5597;47.588;9.642;2022-07-29T09:18:42;24.00;99.90
11087;DHT22;5597;47.588;9.642;2022-07-29T09:21:10;24.00;99.90
11087;DHT22;5597;47.588;9.642;2022-07-29T09:24:21;24.00;99.90
11087;DHT22;5597;47.588;9.642;2022-07-29T09:26:47;23.90;99.90
11087;DHT22;5597;47.588;9.642;2022-07-29T09:29:23;23.90;99.90
11087;DHT22;5597;47.588;9.642;2022-07-29T09:31:52;23.80;99.90
11087;DHT22;5597;47.588;9.642;2022-07-29T09:34:28;23.70;99.90
11087;DHT22;5597;47.588;9.642;2022-07-29T09:36:55;23.70;99.90
11087;DHT22;5597;47.588;9.642;2022-07-29T09:39:35;23.60;99.90
11087;DHT22;5597;47.588;9.642;2022-07-29T09:42:04;23.50;99.90
11087;DHT22;5597;47.588;9.642;2022-07-29T09:44:46;23.50;99.90
11087;DHT22;5597;47.588;9.642;2022-07-29T09:47:12;23.40;99.90
11087;DHT22;5597;47.588;9.642;2022-07-29T09:49:54;23.30;99.90
11087;DHT22;5597;47.588;9.642;2022-07-29T09:52:20;23.20;99.90
11087;DHT22;5597;47.588;9.642;2022-07-29T09:54:47;23.10;99.90
11087;DHT22;5597;47.588;9.642;2022-07-29T09:57:27;23.00;99.90
11087;DHT22;5597;47.588;9.642;2022-07-29T10:00:17;23.00;99.90
11087;DHT22;5597;47.588;9.642;2022-07-29T10:02:44;22.90;99.90
11087;DHT22;5597;47.588;9.642;2022-07-29T10:10:09;22.60;99.90
11087;DHT22;5597;47.588;9.642;2022-07-29T10:12:52;22.50;99.90
11087;DHT22;5597;47.588;9.642;2022-07-29T10:15:19;22.40;99.90
11087;DHT22;5597;47.588;9.642;2022-07-29T10:17:46;22.30;99.90
11087;DHT22;5597;47.588;9.642;2022-07-29T10:20:14;22.20;99.90
11087;DHT22;5597;47.588;9.642;2022-07-29T10:22:40;22.00;99.90
11087;DHT22;5597;47.588;9.642;2022-07-29T10:25:07;21.80;99.90
11087;DHT22;5597;47.588;9.642;2022-07-29T10:27:35;21.70;99.90
11087;DHT22;5597;47.588;9.642;2022-07-29T10:30:02;21.60;99.90
11087;DHT22;5597;47.588;9.642;2022-07-29T10:46:51;21.60;99.90
11087;DHT22;5597;47.588;9.642;2022-07-29T10:49:25;21.50;99.90
11087;DHT22;5597;47.588;9.642;2022-07-29T10:51:56;21.50;99.90
11087;DHT22;5597;47.588;9.642;2022-07-29T10:59:51;21.40;99.90
11087;DHT22;5597;47.588;9.642;2022-07-29T11:05:02;21.40;99.90
11087;DHT22;5597;47.588;9.642;2022-07-29T11:07:29;21.70;99.90
11087;DHT22;5597;47.588;9.642;2022-07-29T11:15:11;22.70;99.90
11087;DHT22;5597;47.588;9.642;2022-07-29T11:20:35;22.90;99.90
11087;DHT22;5597;47.588;9.642;2022-07-29T11:23:03;22.90;99.90
11087;DHT22;5597;47.588;9.642;2022-07-29T11:25:42;22.90;99.90
11087;DHT22;5597;47.588;9.642;2022-07-29T11:28:16;23.10;99.90
11087;DHT22;5597;47.588;9.642;2022-07-29T11:30:51;23.20;99.90
11087;DHT22;5597;47.588;9.642;2022-07-29T11:33:31;23.30;99.90
11087;DHT22;5597;47.588;9.642;2022-07-29T11:36:13;23.40;99.90
11087;DHT22;5597;47.588;9.642;2022-07-29T11:38:40;23.40;99.90
11087;DHT22;5597;47.588;9.642;2022-07-29T11:41:25;23.30;99.90
11087;DHT22;5597;47.588;9.642;2022-07-29T11:43:55;23.30;99.90
11087;DHT22;5597;47.588;9.642;2022-07-29T11:46:43;23.30;99.90
11087;DHT22;5597;47.588;9.642;2022-07-29T11:49:10;23.30;99.90
11087;DHT22;5597;47.588;9.642;2022-07-29T11:51:36;23.30;99.90
11087;DHT22;5597;47.588;9.642;2022-07-29T11:54:03;23.40;99.90
11087;DHT22;5597;47.588;9.642;2022-07-29T11:56:31;23.50;99.90
11087;DHT22;5597;47.588;9.642;2022-07-29T11:59:06;23.50;99.90
11087;DHT22;5597;47.588;9.642;2022-07-29T12:01:32;23.50;99.90
11087;DHT22;5597;47.588;9.642;2022-07-29T12:04:04;23.50;99.90
11087;DHT22;5597;47.588;9.642;2022-07-29T12:06:30;23.60;99.90
11087;DHT22;5597;47.588;9.642;2022-07-29T12:08:56;23.80;99.90
11087;DHT22;5597;47.588;9.642;2022-07-29T12:11:22;24.10;99.90
11087;DHT22;5597;47.588;9.642;2022-07-29T12:13:48;24.50;99.90
11087;DHT22;5597;47.588;9.642;2022-07-29T12:16:14;24.80;99.90
11087;DHT22;5597;47.588;9.642;2022-07-29T12:18:40;25.00;99.90
11087;DHT22;5597;47.588;9.642;2022-07-29T12:21:05;25.00;99.90
11087;DHT22;5597;47.588;9.642;2022-07-29T12:23:32;25.10;99.90
11087;DHT22;5597;47.588;9.642;2022-07-29T12:25:58;25.10;99.90
11087;DHT22;5597;47.588;9.642;2022-07-29T12:28:24;25.10;99.90
11087;DHT22;5597;47.588;9.642;2022-07-29T12:30:50;25.10;99.90
11087;DHT22;5597;47.588;9.642;2022-07-29T12:33:24;25.00;99.90
11087;DHT22;5597;47.588;9.642;2022-07-29T12:35:53;24.90;99.90
11087;DHT22;5597;47.588;9.642;2022-07-29T12:38:20;24.80;99.90
11087;DHT22;5597;47.588;9.642;2022-07-29T12:40:47;24.60;99.90
11087;DHT22;5597;47.588;9.642;2022-07-29T12:43:15;24.50;99.90
11087;DHT22;5597;47.588;9.642;2022-07-29T12:45:46;24.50;99.90
11087;DHT22;5597;47.588;9.642;2022-07-29T12:48:13;24.50;99.90
11087;DHT22;5597;47.588;9.642;2022-07-29T12:50:56;24.50;99.90
11087;DHT22;5597;47.588;9.642;2022-07-29T12:53:22;24.60;99.90
11087;DHT22;5597;47.588;9.642;2022-07-29T12:55:50;24.80;99.90
11087;DHT22;5597;47.588;9.642;2022-07-29T12:58:45;25.00;99.90
11087;DHT22;5597;47.588;9.642;2022-07-29T13:01:13;25.00;99.90
11087;DHT22;5597;47.588;9.642;2022-07-29T13:03:50;25.00;99.90
11087;DHT22;5597;47.588;9.642;2022-07-29T13:06:37;24.90;99.90
11087;DHT22;5597;47.588;9.642;2022-07-29T13:09:14;24.90;99.90
11087;DHT22;5597;47.588;9.642;2022-07-29T13:11:42;24.90;99.90
11087;DHT22;5597;47.588;9.642;2022-07-29T13:14:11;24.80;99.90
11087;DHT22;5597;47.588;9.642;2022-07-29T13:22:00;24.60;99.90
11087;DHT22;5597;47.588;9.642;2022-07-29T13:24:26;24.60;99.90
11087;DHT22;5597;47.588;9.642;2022-07-29T13:26:51;24.60;99.90
11087;DHT22;5597;47.588;9.642;2022-07-29T13:29:17;24.60;99.90
11087;DHT22;5597;47.588;9.642;2022-07-29T13:31:43;24.60;99.90
11087;DHT22;5597;47.588;9.642;2022-07-29T13:34:09;24.60;99.90
11087;DHT22;5597;47.588;9.642;2022-07-29T13:36:34;24.60;99.90
11087;DHT22;5597;47.588;9.642;2022-07-29T13:39:00;24.60;99.90
11087;DHT22;5597;47.588;9.642;2022-07-29T13:41:27;24.70;99.90
11087;DHT22;5597;47.588;9.642;2022-07-29T13:43:53;24.80;99.90
11087;DHT22;5597;47.588;9.642;2022-07-29T13:46:19;25.00;99.90
11087;DHT22;5597;47.588;9.642;2022-07-29T13:48:45;25.20;99.90
11087;DHT22;5597;47.588;9.642;2022-07-29T13:51:10;25.40;99.90
11087;DHT22;5597;47.588;9.642;2022-07-29T13:53:36;25.50;99.90
11087;DHT22;5597;47.588;9.642;2022-07-29T13:56:02;25.50;99.90
11087;DHT22;5597;47.588;9.642;2022-07-29T13:58:27;25.70;99.90
11087;DHT22;5597;47.588;9.642;2022-07-29T14:00:53;25.90;99.90
11087;DHT22;5597;47.588;9.642;2022-07-29T14:03:19;26.00;99.90
11087;DHT22;5597;47.588;9.642;2022-07-29T14:05:44;26.20;99.90
11087;DHT22;5597;47.588;9.642;2022-07-29T14:08:10;26.20;99.90
11087;DHT22;5597;47.588;9.642;2022-07-29T14:10:35;26.20;99.90
11087;DHT22;5597;47.588;9.642;2022-07-29T14:13:01;26.20;99.90
11087;DHT22;5597;47.588;9.642;2022-07-29T14:15:27;26.10;99.90
11087;DHT22;5597;47.588;9.642;2022-07-29T14:17:52;26.10;99.90
11087;DHT22;5597;47.588;9.642;2022-07-29T14:20:18;26.00;99.90
11087;DHT22;5597;47.588;9.642;2022-07-29T14:22:44;25.90;99.90
11087;DHT22;5597;47.588;9.642;2022-07-29T14:25:10;25.80;99.90
11087;DHT22;5597;47.588;9.642;2022-07-29T14:27:35;25.70;99.90
11087;DHT22;5597;47.588;9.642;2022-07-29T14:30:01;25.70;99.90
11087;DHT22;5597;47.588;9.642;2022-07-29T14:32:27;25.70;99.90
11087;DHT22;5597;47.588;9.642;2022-07-29T14:34:52;25.70;99.90
11087;DHT22;5597;47.588;9.642;2022-07-29T14:37:18;25.70;99.90
11087;DHT22;5597;47.588;9.642;2022-07-29T14:39:43;25.70;99.90
11087;DHT22;5597;47.588;9.642;2022-07-29T14:42:12;25.70;99.90
11087;DHT22;5597;47.588;9.642;2022-07-29T14:44:38;25.70;99.90
11087;DHT22;5597;47.588;9.642;2022-07-29T14:47:04;25.60;99.90
11087;DHT22;5597;47.588;9.642;2022-07-29T14:49:30;25.50;99.90
11087;DHT22;5597;47.588;9.642;2022-07-29T14:51:55;25.30;99.90
11087;DHT22;5597;47.588;9.642;2022-07-29T14:54:21;25.30;99.90
11087;DHT22;5597;47.588;9.642;2022-07-29T14:56:46;25.10;99.90
11087;DHT22;5597;47.588;9.642;2022-07-29T14:59:14;25.10;99.90
11087;DHT22;5597;47.588;9.642;2022-07-29T15:01:40;25.00;99.90
11087;DHT22;5597;47.588;9.642;2022-07-29T15:04:06;24.90;99.90
11087;DHT22;5597;47.588;9.642;2022-07-29T15:06:31;24.80;99.90
11087;DHT22;5597;47.588;9.642;2022-07-29T15:08:57;24.80;99.90
11087;DHT22;5597;47.588;9.642;2022-07-29T15:11:22;24.80;99.90
11087;DHT22;5597;47.588;9.642;2022-07-29T15:13:48;24.80;99.90
11087;DHT22;5597;47.588;9.642;2022-07-29T15:16:13;24.80;99.90
11087;DHT22;5597;47.588;9.642;2022-07-29T15:18:39;24.70;99.90
11087;DHT22;5597;47.588;9.642;2022-07-29T15:21:05;24.50;99.90
11087;DHT22;5597;47.588;9.642;2022-07-29T15:23:32;24.50;99.90
11087;DHT22;5597;47.588;9.642;2022-07-29T15:25:58;24.30;99.90
11087;DHT22;5597;47.588;9.642;2022-07-29T15:28:24;24.20;99.90
11087;DHT22;5597;47.588;9.642;2022-07-29T15:30:50;24.00;99.90
11087;DHT22;5597;47.588;9.642;2022-07-29T15:33:15;23.90;99.90
11087;DHT22;5597;47.588;9.642;2022-07-29T15:35:41;23.80;99.90
11087;DHT22;5597;47.588;9.642;2022-07-29T15:38:07;23.70;99.90
11087;DHT22;5597;47.588;9.642;2022-07-29T15:40:32;23.60;99.90
11087;DHT22;5597;47.588;9.642;2022-07-29T15:42:58;23.40;99.90
11087;DHT22;5597;47.588;9.642;2022-07-29T15:45:35;23.30;99.90
11087;DHT22;5597;47.588;9.642;2022-07-29T15:48:01;23.20;99.90
11087;DHT22;5597;47.588;9.642;2022-07-29T15:50:27;23.10;99.90
11087;DHT22;5597;47.588;9.642;2022-07-29T15:52:52;22.90;99.90
11087;DHT22;5597;47.588;9.642;2022-07-29T15:55:18;22.90;99.90
11087;DHT22;5597;47.588;9.642;2022-07-29T15:57:43;22.70;99.90
11087;DHT22;5597;47.588;9.642;2022-07-29T16:00:09;22.60;99.90
11087;DHT22;5597;47.588;9.642;2022-07-29T16:02:35;22.50;99.90
11087;DHT22;5597;47.588;9.642;2022-07-29T16:05:01;22.50;99.90
11087;DHT22;5597;47.588;9.642;2022-07-29T16:07:26;22.40;99.90
11087;DHT22;5597;47.588;9.642;2022-07-29T16:09:52;22.40;99.90
11087;DHT22;5597;47.588;9.642;2022-07-29T16:12:17;22.30;99.90
11087;DHT22;5597;47.588;9.642;2022-07-29T16:14:43;22.20;99.90
11087;DHT22;5597;47.588;9.642;2022-07-29T16:17:08;22.20;99.90
11087;DHT22;5597;47.588;9.642;2022-07-29T16:19:34;22.10;99.90
11087;DHT22;5597;47.588;9.642;2022-07-29T16:21:59;22.10;99.90
11087;DHT22;5597;47.588;9.642;2022-07-29T16:24:25;22.00;99.90
11087;DHT22;5597;47.588;9.642;2022-07-29T16:26:54;21.90;99.90
11087;DHT22;5597;47.588;9.642;2022-07-29T16:29:20;21.90;99.90
11087;DHT22;5597;47.588;9.642;2022-07-29T16:31:45;21.80;99.90
11087;DHT22;5597;47.588;9.642;2022-07-29T16:34:11;21.80;99.90
11087;DHT22;5597;47.588;9.642;2022-07-29T16:36:37;21.70;99.90
11087;DHT22;5597;47.588;9.642;2022-07-29T16:39:02;21.70;99.90
11087;DHT22;5597;47.588;9.642;2022-07-29T16:41:30;21.60;99.90
11087;DHT22;5597;47.588;9.642;2022-07-29T16:43:55;21.60;99.90
11087;DHT22;5597;47.588;9.642;2022-07-29T16:46:21;21.60;99.90
11087;DHT22;5597;47.588;9.642;2022-07-29T16:48:47;21.50;99.90
11087;DHT22;5597;47.588;9.642;2022-07-29T16:51:12;21.50;99.90
11087;DHT22;5597;47.588;9.642;2022-07-29T16:53:38;21.40;99.90